Time;durP1;ratioP1;P1;durP2;ratioP2;P2;SDS_P1;SDS_P2;PMS_P1;PMS_P2;Temp;Humidity;BMP_temperature;BMP_pressure;BME280_temperature;BME280_humidity;BME280_pressure;Samples;Min_cycle;Max_cycle;Signal;HPM_P1;HPM_P2
2021/09/11 00:01:58;;;;;;;4.10;3.80;;;;;;;12.12;81.98;100412.00;6272503;22;20016;-74
2021/09/11 00:04:24;;;;;;;3.95;3.65;;;;;;;12.10;82.21;100419.09;6270913;22;20016;-74
2021/09/11 00:06:50;;;;;;;4.18;3.78;;;;;;;12.06;82.01;100414.94;6272634;22;20481;-74
2021/09/11 00:09:16;;;;;;;4.53;4.30;;;;;;;12.06;81.95;100417.56;6272131;22;20021;-74
2021/09/11 00:11:42;;;;;;;4.25;3.95;;;;;;;11.98;82.72;100414.47;6272409;22;20463;-74
2021/09/11 00:14:08;;;;;;;3.85;3.60;;;;;;;11.98;82.13;100417.09;6272528;22;20020;-75
2021/09/11 00:16:34;;;;;;;3.85;3.60;;;;;;;12.04;82.46;100427.25;6271419;22;20077;-75
2021/09/11 00:19:00;;;;;;;3.30;3.10;;;;;;;11.96;82.97;100419.81;6273769;22;20042;-74
2021/09/11 00:21:26;;;;;;;4.80;4.35;;;;;;;11.94;83.82;100420.81;6271140;22;20023;-74
2021/09/11 00:23:52;;;;;;;9.52;5.53;;;;;;;11.86;83.48;100417.72;6220340;22;20061;-74
2021/09/11 00:26:18;;;;;;;6.05;3.92;;;;;;;11.80;83.72;100407.56;6245218;22;20409;-74
2021/09/11 00:39:24;;;;;;;2.35;2.25;;;;;;;11.61;84.42;100427.72;5190097;27;20117;-74
2021/09/11 00:41:53;;;;;;;8.32;4.13;;;;;;;11.55;84.63;100420.16;5171610;27;20040;-75
2021/09/11 00:44:19;;;;;;;4.90;4.60;;;;;;;11.52;84.50;100420.31;5136483;27;20045;-73
2021/09/11 00:46:45;;;;;;;3.80;3.60;;;;;;;11.52;84.93;100417.72;5154047;27;20094;-74
2021/09/11 00:49:11;;;;;;;4.03;3.72;;;;;;;11.46;85.10;100414.47;5189985;27;20038;-73
2021/09/11 00:51:38;;;;;;;5.85;4.22;;;;;;;11.46;85.26;100429.28;5190113;27;20068;-74
2021/09/11 00:54:04;;;;;;;4.30;4.10;;;;;;;11.41;85.79;100421.69;5190003;27;20038;-74
2021/09/11 00:56:30;;;;;;;6.40;5.80;;;;;;;11.39;86.06;100428.75;5189892;27;20124;-72
2021/09/11 00:58:56;;;;;;;4.45;4.25;;;;;;;11.35;85.82;100423.75;5171054;27;20058;-72
2021/09/11 01:01:23;;;;;;;3.88;3.65;;;;;;;11.27;86.17;100421.50;5189648;27;20096;-75
2021/09/11 01:03:50;;;;;;;5.63;4.93;;;;;;;11.27;85.94;100426.75;5137140;27;20038;-71
2021/09/11 01:06:16;;;;;;;4.63;4.40;;;;;;;11.26;86.20;100429.41;5170762;27;20049;-73
2021/09/11 01:08:42;;;;;;;10.35;5.22;;;;;;;11.26;86.02;100427.66;5171079;27;20137;-71
2021/09/11 01:11:08;;;;;;;4.45;3.13;;;;;;;11.28;85.91;100428.44;5153680;27;20128;-73
2021/09/11 01:13:37;;;;;;;3.53;3.33;;;;;;;11.24;85.62;100426.91;5170762;27;20065;-73
2021/09/11 01:16:03;;;;;;;3.67;3.38;;;;;;;11.28;85.84;100430.22;5190072;27;20106;-74
2021/09/11 01:18:30;;;;;;;11.98;3.65;;;;;;;11.29;85.55;100432.72;5170898;27;20457;-73
2021/09/11 01:20:56;;;;;;;3.75;3.00;;;;;;;11.30;85.53;100429.22;5189468;27;20483;-72
2021/09/11 01:23:22;;;;;;;3.42;3.22;;;;;;;11.31;85.01;100435.28;5170462;27;20504;-72
2021/09/11 01:25:48;;;;;;;4.68;4.25;;;;;;;11.30;85.51;100434.44;5188998;27;20094;-73
2021/09/11 01:28:14;;;;;;;7.43;4.53;;;;;;;11.36;85.04;100433.28;5188632;27;20038;-73
2021/09/11 01:30:40;;;;;;;4.05;3.75;;;;;;;11.33;84.87;100431.66;5188999;27;20041;-73
2021/09/11 01:33:06;;;;;;;5.90;5.50;;;;;;;11.31;84.65;100437.91;5188972;27;20038;-73
2021/09/11 01:35:32;;;;;;;3.55;3.35;;;;;;;11.30;84.72;100439.66;5152660;27;20527;-72
2021/09/11 01:37:58;;;;;;;5.32;4.13;;;;;;;11.30;84.62;100438.81;5189603;27;20050;-76
2021/09/11 01:40:24;;;;;;;5.30;4.93;;;;;;;11.28;84.60;100443.28;5189513;27;20492;-75
2021/09/11 01:42:50;;;;;;;2.53;2.42;;;;;;;11.28;84.58;100436.28;5173563;27;20026;-75
2021/09/11 01:45:18;;;;;;;4.43;4.13;;;;;;;11.32;83.93;100435.19;5152782;27;20037;-75
2021/09/11 01:47:44;;;;;;;3.38;3.03;;;;;;;11.31;83.95;100435.28;5190855;27;20064;-75
2021/09/11 01:50:12;;;;;;;4.15;3.95;;;;;;;11.40;83.38;100442.69;5122971;27;20042;-73
2021/09/11 01:52:38;;;;;;;3.35;3.05;;;;;;;11.41;83.52;100437.38;5138913;27;20503;-74
2021/09/11 01:55:08;;;;;;;3.97;3.72;;;;;;;11.44;83.46;100437.22;5156130;27;20091;-73
2021/09/11 01:57:38;;;;;;;10.35;3.38;;;;;;;11.48;83.88;100448.38;5139582;27;20041;-73
2021/09/11 02:00:14;;;;;;;15.15;3.83;;;;;;;11.52;84.32;100449.09;5174984;27;20061;-73
2021/09/11 02:02:40;;;;;;;3.45;3.25;;;;;;;11.46;83.90;100450.22;5160448;27;20030;-72
2021/09/11 02:05:08;;;;;;;3.65;3.45;;;;;;;11.42;83.97;100449.50;5180288;27;20038;-72
2021/09/11 02:07:34;;;;;;;3.78;3.55;;;;;;;11.42;83.58;100443.44;5157554;27;20084;-73
2021/09/11 02:10:00;;;;;;;3.90;3.60;;;;;;;11.39;83.33;100451.44;5156115;27;20042;-73
2021/09/11 02:12:26;;;;;;;4.57;4.07;;;;;;;11.42;83.24;100449.50;5148928;27;20045;-72
2021/09/11 02:14:52;;;;;;;3.05;2.90;;;;;;;11.33;84.04;100436.03;5172783;27;20440;-72
2021/09/11 02:17:17;;;;;;;3.65;3.40;;;;;;;11.34;84.23;100451.66;5174136;27;20095;-73
2021/09/11 02:19:44;;;;;;;3.65;3.45;;;;;;;11.35;84.13;100448.13;5172006;27;20147;-75
2021/09/11 02:22:11;;;;;;;3.42;3.05;;;;;;;11.17;84.42;100433.34;5161952;27;20042;-75
2021/09/11 02:24:38;;;;;;;2.95;2.85;;;;;;;11.23;84.97;100440.03;5137674;27;20035;-75
2021/09/11 02:27:04;;;;;;;3.47;3.28;;;;;;;11.25;84.13;100444.28;5143795;27;20030;-75
2021/09/11 02:29:30;;;;;;;2.95;2.65;;;;;;;11.28;84.50;100435.44;5153014;27;20146;-75
2021/09/11 02:31:56;;;;;;;4.05;3.67;;;;;;;11.28;83.75;100436.28;5150537;27;20388;-74
2021/09/11 02:34:22;;;;;;;3.60;3.17;;;;;;;11.32;84.02;100434.38;5137206;27;20042;-74
2021/09/11 02:36:48;;;;;;;3.88;3.58;;;;;;;11.35;83.31;100442.88;5138073;27;20034;-74
2021/09/11 02:39:14;;;;;;;2.70;2.53;;;;;;;11.40;84.36;100447.91;5154826;27;20046;-72
2021/09/11 02:41:40;;;;;;;2.78;2.63;;;;;;;11.38;84.34;100453.22;5173482;27;20117;-74
2021/09/11 02:44:06;;;;;;;3.58;3.28;;;;;;;11.30;84.69;100459.72;5120599;27;20094;-73
2021/09/11 02:46:32;;;;;;;3.70;3.47;;;;;;;11.23;85.21;100448.72;5173482;27;20038;-74
2021/09/11 02:48:59;;;;;;;2.92;2.72;;;;;;;11.14;85.12;100441.31;5173769;27;20044;-73
2021/09/11 02:51:25;;;;;;;4.07;3.50;;;;;;;11.10;85.64;100439.78;5172625;27;20037;-74
2021/09/11 02:53:51;;;;;;;21.02;3.83;;;;;;;11.12;85.17;100440.56;5155572;27;20038;-75
2021/09/11 02:56:17;;;;;;;4.15;3.45;;;;;;;11.16;85.27;100436.03;5174048;27;20045;-75
2021/09/11 02:58:43;;;;;;;3.65;3.45;;;;;;;11.15;84.78;100440.41;5173591;27;20129;-74
2021/09/11 03:01:09;;;;;;;3.60;3.38;;;;;;;11.19;84.95;100441.94;5173922;27;20056;-74
2021/09/11 03:03:44;;;;;;;3.40;2.95;;;;;;;11.12;84.47;100435.34;5173965;27;20053;-73
2021/09/11 03:06:11;;;;;;;2.97;2.78;;;;;;;11.20;84.52;100438.41;5176544;27;20101;-74
2021/09/11 03:08:36;;;;;;;3.42;3.28;;;;;;;11.42;82.94;100433.81;5157377;27;20231;-74
2021/09/11 03:11:06;;;;;;;7.55;4.85;;;;;;;11.80;82.26;100431.97;5134652;27;20073;-75
2021/09/11 03:13:32;;;;;;;5.45;4.13;;;;;;;11.90;81.42;100432.34;5134130;27;20042;-77
2021/09/11 03:16:03;;;;;;;50.00;23.98;;;;;;;12.04;81.88;100432.50;5136271;27;20046;-74
2021/09/11 03:18:33;;;;;;;23.02;17.33;;;;;;;12.52;79.41;100422.06;5152780;27;20085;-75
2021/09/11 03:20:59;;;;;;;17.00;13.50;;;;;;;12.76;77.71;100421.66;5152547;27;20061;-73
2021/09/11 03:23:25;;;;;;;58.75;24.67;;;;;;;12.89;76.62;100417.44;5133860;27;20664;-74
2021/09/11 03:25:51;;;;;;;60.53;28.15;;;;;;;13.13;75.64;100420.47;5133770;27;20034;-75
2021/09/11 03:28:17;;;;;;;9.35;5.63;;;;;;;13.19;75.94;100418.34;5134192;27;20106;-74
2021/09/11 03:30:49;;;;;;;16.02;7.95;;;;;;;13.61;73.43;100424.72;5133337;27;20043;-73
2021/09/11 03:33:15;;;;;;;4.47;4.22;;;;;;;13.78;73.47;100414.06;5152724;27;20031;-75
2021/09/11 03:35:41;;;;;;;87.10;47.47;;;;;;;13.94;72.09;100414.84;5134337;27;20045;-75
2021/09/11 03:38:08;;;;;;;4.05;3.85;;;;;;;13.64;72.52;100419.28;5134583;27;20474;-74
2021/09/11 03:40:33;;;;;;;66.70;41.80;;;;;;;13.54;73.30;100429.47;5152885;27;20462;-77
2021/09/11 03:42:59;;;;;;;12.38;9.23;;;;;;;13.94;71.98;100425.34;5134367;27;20501;-78
2021/09/11 03:45:25;;;;;;;175.75;92.80;;;;;;;14.23;70.75;100421.84;5151624;27;20450;-78
2021/09/11 03:47:51;;;;;;;6.65;3.42;;;;;;;14.47;69.97;100425.59;5099616;27;20058;-78
2021/09/11 03:50:17;;;;;;;10.35;9.32;;;;;;;15.12;67.82;100426.69;5151978;27;20039;-78
2021/09/11 03:52:43;;;;;;;112.68;46.60;;;;;;;15.88;64.96;100432.22;5133712;27;20043;-78
2021/09/11 03:55:10;;;;;;;7.50;5.35;;;;;;;16.07;63.51;100434.44;5153599;27;20042;-79
2021/09/11 03:57:36;;;;;;;3.25;3.00;;;;;;;16.00;63.42;100439.28;5153814;27;20061;-77
2021/09/11 04:00:02;;;;;;;3.30;3.08;;;;;;;16.09;63.39;100443.94;5135859;27;20525;-76
2021/09/11 04:02:37;;;;;;;40.75;18.17;;;;;;;15.84;64.06;100443.88;5154594;27;20043;-78
2021/09/11 04:05:04;;;;;;;4.40;4.03;;;;;;;15.45;65.22;100444.72;5133492;27;20034;-80
2021/09/11 04:07:30;;;;;;;14.55;3.53;;;;;;;16.06;63.57;100448.56;5160141;27;20160;-79
2021/09/11 04:09:56;;;;;;;5.60;4.03;;;;;;;15.94;63.17;100438.84;5172355;27;20477;-78
2021/09/11 04:12:22;;;;;;;29.23;13.45;;;;;;;15.78;63.94;100443.47;5172739;27;20034;-77
2021/09/11 04:14:48;;;;;;;2.78;2.58;;;;;;;15.49;64.90;100448.88;5156592;27;20034;-79
2021/09/11 04:17:14;;;;;;;7.40;5.90;;;;;;;15.96;63.66;100440.47;5176058;27;20625;-79
2021/09/11 04:19:40;;;;;;;3.10;2.90;;;;;;;15.79;63.77;100439.88;5142166;27;20098;-78
2021/09/11 04:22:06;;;;;;;7.45;3.58;;;;;;;14.69;67.04;100442.69;5157829;27;20057;-77
2021/09/11 04:24:32;;;;;;;2.75;2.65;;;;;;;14.92;66.83;100447.34;5158445;27;20461;-80
2021/09/11 04:26:58;;;;;;;2.88;2.70;;;;;;;15.29;64.52;100444.03;5155864;27;20045;-78
2021/09/11 04:29:24;;;;;;;3.65;3.45;;;;;;;15.53;64.45;100450.38;5133877;27;20043;-78
2021/09/11 04:31:50;;;;;;;3.28;3.08;;;;;;;14.84;67.51;100452.22;5133711;27;20060;-78
2021/09/11 04:34:16;;;;;;;3.08;2.85;;;;;;;15.13;66.39;100438.91;5152535;27;20047;-78
2021/09/11 04:36:43;;;;;;;3.05;2.92;;;;;;;15.10;65.73;100449.63;5134857;27;20532;-77
2021/09/11 04:39:10;;;;;;;2.85;2.65;;;;;;;15.00;67.04;100445.91;5154127;27;20043;-75
2021/09/11 04:41:35;;;;;;;3.45;3.10;;;;;;;15.77;63.86;100447.06;5132113;27;20532;-75
2021/09/11 04:44:01;;;;;;;4.18;3.85;;;;;;;15.47;65.47;100437.59;5151046;27;20043;-75
2021/09/11 04:46:27;;;;;;;3.58;2.80;;;;;;;14.72;66.85;100440.72;5132184;27;20038;-76
2021/09/11 04:48:53;;;;;;;2.80;2.70;;;;;;;14.19;69.53;100441.34;5132712;27;20073;-75
2021/09/11 04:51:21;;;;;;;2.55;2.45;;;;;;;13.90;69.85;100434.34;5132732;27;20057;-76
2021/09/11 04:53:48;;;;;;;2.58;1.83;;;;;;;13.86;70.73;100432.84;5132467;27;20509;-75
2021/09/11 04:56:14;;;;;;;2.58;2.47;;;;;;;13.54;71.79;100439.97;5132887;27;20034;-75
2021/09/11 04:58:40;;;;;;;4.28;2.70;;;;;;;13.41;71.75;100442.47;5136241;27;20065;-74
2021/09/11 05:01:06;;;;;;;2.20;2.10;;;;;;;13.72;71.47;100435.41;5160134;27;20128;-74
2021/09/11 05:03:32;;;;;;;5.50;1.75;;;;;;;13.61;72.50;100438.69;5181113;27;20129;-74
2021/09/11 05:05:58;;;;;;;1.33;1.33;;;;;;;13.94;70.92;100426.19;5176034;27;20053;-74
2021/09/11 05:08:24;;;;;;;2.30;2.20;;;;;;;14.46;68.71;100429.16;5172082;27;20042;-75
2021/09/11 05:10:51;;;;;;;6.78;1.92;;;;;;;14.20;69.87;100426.41;5153466;27;20042;-74
2021/09/11 05:13:17;;;;;;;2.55;2.35;;;;;;;14.86;66.88;100414.38;5153404;27;20030;-75
2021/09/11 05:15:43;;;;;;;3.47;2.17;;;;;;;15.78;64.35;100427.66;5156865;27;20076;-74
2021/09/11 05:18:09;;;;;;;1.83;1.75;;;;;;;15.83;64.22;100420.31;5175956;27;20026;-74
2021/09/11 05:20:35;;;;;;;1.70;1.65;;;;;;;17.39;58.86;100427.66;5175313;27;20378;-74
2021/09/11 05:23:01;;;;;;;2.72;2.50;;;;;;;17.88;57.71;100419.56;5157112;27;20037;-74
2021/09/11 05:25:27;;;;;;;1.92;1.83;;;;;;;18.86;54.76;100425.06;5139359;27;20046;-75
2021/09/11 05:27:53;;;;;;;13.55;2.40;;;;;;;16.99;60.68;100429.72;5122477;27;20066;-74
2021/09/11 05:30:19;;;;;;;2.17;2.08;;;;;;;17.13;60.26;100433.03;5139358;27;20094;-75
2021/09/11 05:32:45;;;;;;;1.02;1.02;;;;;;;16.87;60.62;100422.69;5175230;27;20058;-75
2021/09/11 05:35:11;;;;;;;2.33;2.22;;;;;;;15.95;63.65;100430.84;5175347;27;20049;-75
2021/09/11 05:37:38;;;;;;;10.23;1.52;;;;;;;15.78;64.90;100425.03;5152853;27;20058;-75
2021/09/11 05:40:05;;;;;;;5.00;2.05;;;;;;;15.51;65.71;100430.38;5154676;27;20039;-75
2021/09/11 05:42:32;;;;;;;1.38;1.38;;;;;;;15.61;64.97;100431.41;5154324;27;20114;-73
2021/09/11 05:44:59;;;;;;;2.20;2.10;;;;;;;15.92;64.83;100433.69;5154358;27;20497;-74
2021/09/11 05:47:25;;;;;;;5.97;2.15;;;;;;;16.44;62.54;100430.97;5153890;27;20107;-76
2021/09/11 05:49:57;;;;;;;2.65;2.03;;;;;;;15.48;65.30;100426.13;5155702;27;20075;-74
2021/09/11 05:52:44;;;;;;;1.05;1.05;;;;;;;16.33;63.61;100425.59;5148001;27;20074;-77
2021/09/11 05:55:19;;;;;;;5.45;1.70;;;;;;;17.06;61.04;100428.31;5155544;27;20045;-75
2021/09/11 05:57:46;;;;;;;1.67;1.67;;;;;;;17.11;60.68;100428.84;5154579;27;20043;-75
2021/09/11 06:00:12;;;;;;;1.73;1.73;;;;;;;16.09;63.86;100422.88;5154471;27;20042;-76
2021/09/11 06:03:11;;;;;;;1.42;1.42;;;;;;;16.26;64.80;100434.88;5156222;27;20054;-79
2021/09/11 06:06:09;;;;;;;1.70;1.70;;;;;;;17.02;62.19;100430.34;5108011;27;20050;-77
2021/09/11 06:08:37;;;;;;;1.50;1.50;;;;;;;16.08;64.62;100421.19;5102377;27;20111;-74
2021/09/11 06:11:03;;;;;;;1.88;1.77;;;;;;;16.67;62.80;100411.78;5117407;27;20035;-79
2021/09/11 06:13:29;;;;;;;1.42;1.42;;;;;;;16.88;62.46;100425.22;5118384;27;20031;-79
2021/09/11 06:15:55;;;;;;;1.70;1.60;;;;;;;18.13;58.76;100429.94;5132105;27;20043;-80
2021/09/11 06:18:22;;;;;;;2.00;1.90;;;;;;;18.50;58.21;100414.75;5133228;27;20056;-77
2021/09/11 06:20:48;;;;;;;1.70;1.70;;;;;;;18.05;59.12;100416.50;5136403;27;20413;-80
2021/09/11 06:23:14;;;;;;;1.45;1.45;;;;;;;16.81;62.70;100416.06;5152501;27;20043;-78
2021/09/11 06:25:40;;;;;;;1.85;1.75;;;;;;;16.56;63.12;100419.59;5150592;27;20031;-78
2021/09/11 06:28:06;;;;;;;2.38;2.28;;;;;;;16.64;63.43;100414.63;5153212;27;20039;-79
2021/09/11 06:30:33;;;;;;;1.77;1.75;;;;;;;16.73;63.28;100409.63;5138571;27;20103;-76
2021/09/11 06:32:59;;;;;;;1.50;1.50;;;;;;;16.69;63.58;100414.28;5115428;27;20043;-76
2021/09/11 06:35:25;;;;;;;1.58;1.50;;;;;;;16.72;63.86;100426.44;5138541;27;20038;-77
2021/09/11 06:37:52;;;;;;;2.55;2.35;;;;;;;16.40;64.02;100426.00;5151011;27;20107;-79
2021/09/11 06:40:21;;;;;;;4.28;2.40;;;;;;;16.20;64.84;100430.00;5134428;27;20035;-78
2021/09/11 06:42:47;;;;;;;2.05;1.95;;;;;;;16.76;63.10;100417.31;5150860;27;20071;-77
2021/09/11 06:45:14;;;;;;;2.33;2.22;;;;;;;16.63;63.04;100420.00;5133888;27;20023;-77
2021/09/11 06:47:39;;;;;;;2.75;2.10;;;;;;;16.97;63.06;100421.06;5140883;27;20081;-78
2021/09/11 06:50:06;;;;;;;1.80;1.70;;;;;;;17.18;62.10;100424.78;5094963;27;20092;-79
2021/09/11 06:52:32;;;;;;;2.05;1.95;;;;;;;16.83;62.84;100419.41;5127834;27;20043;-77
2021/09/11 06:54:59;;;;;;;1.88;1.77;;;;;;;16.81;63.03;100425.75;5132294;27;20066;-77
2021/09/11 06:57:25;;;;;;;2.33;2.22;;;;;;;16.63;64.77;100423.47;5138800;27;20130;-78
2021/09/11 06:59:51;;;;;;;2.17;1.40;;;;;;;17.10;62.43;100427.16;5143751;27;20038;-78
2021/09/11 07:02:17;;;;;;;3.88;2.22;;;;;;;16.87;63.39;100433.22;5134071;27;20038;-77
2021/09/11 07:04:44;;;;;;;2.05;1.95;;;;;;;16.93;63.77;100430.16;5153873;27;20050;-77
2021/09/11 07:07:11;;;;;;;1.90;1.80;;;;;;;17.27;62.49;100424.13;5116774;27;20099;-79
2021/09/11 07:09:37;;;;;;;1.60;1.60;;;;;;;17.72;60.80;100433.09;5133281;27;20584;-78
2021/09/11 07:12:03;;;;;;;1.35;1.35;;;;;;;17.82;59.65;100425.31;5133509;27;20516;-79
2021/09/11 07:14:35;;;;;;;6.20;1.90;;;;;;;17.34;60.31;100425.34;5133419;27;20074;-78
2021/09/11 07:22:15;;;;;;;1.55;1.50;;;;;;;18.20;57.87;100431.16;5087560;28;20192;-80
2021/09/11 07:24:56;;;;;;;3.35;0.95;;;;;;;17.85;58.33;100394.22;5071443;28;20426;-80
2021/09/11 07:27:23;;;;;;;1.48;1.45;;;;;;;17.64;59.51;100422.25;5070236;28;20040;-79
2021/09/11 07:33:39;;;;;;;2.08;1.98;;;;;;;17.75;59.56;100432.88;5019346;28;20057;-81
2021/09/11 07:36:06;;;;;;;1.33;1.23;;;;;;;17.73;59.34;100418.09;5064352;28;20049;-80
2021/09/11 07:38:39;;;;;;;1.42;1.35;;;;;;;18.36;57.76;100410.50;5068409;28;20054;-79
2021/09/11 07:41:05;;;;;;;2.50;2.35;;;;;;;18.01;58.12;100421.16;5108891;28;20036;-81
2021/09/11 07:43:31;;;;;;;1.70;1.60;;;;;;;18.32;57.97;100422.28;5108890;28;20046;-81
2021/09/11 07:45:57;;;;;;;1.95;1.85;;;;;;;18.67;56.74;100423.03;5108933;28;20045;-82
2021/09/11 07:48:24;;;;;;;9.32;1.33;;;;;;;18.03;59.93;100423.69;5091975;28;20185;-79
2021/09/11 07:50:53;;;;;;;1.42;1.42;;;;;;;18.71;57.57;100408.63;5093507;28;20071;-79
2021/09/11 07:53:37;;;;;;;1.90;1.75;;;;;;;18.59;58.41;100406.91;5114120;28;20474;-80
2021/09/11 07:56:04;;;;;;;1.55;1.55;;;;;;;18.49;58.99;100400.63;5113357;28;20092;-79
2021/09/11 07:58:31;;;;;;;1.67;1.58;;;;;;;18.54;58.14;100414.41;5110176;28;20036;-82
2021/09/11 08:01:00;;;;;;;0.98;0.98;;;;;;;18.64;59.20;100388.91;5108981;28;20104;-80
2021/09/11 08:03:42;;;;;;;2.05;1.08;;;;;;;18.76;58.60;100402.09;5117386;27;20039;-82
2021/09/11 08:07:20;;;;;;;1.45;1.45;;;;;;;17.99;59.71;100395.81;5108252;28;20040;-81
2021/09/11 08:13:32;;;;;;;1.52;1.52;;;;;;;18.92;58.32;100389.31;5081909;28;20051;-82
2021/09/11 08:16:00;;;;;;;1.35;1.35;;;;;;;18.63;58.15;100346.69;5119980;27;20502;-79
2021/09/11 08:18:29;;;;;;;1.55;1.45;;;;;;;18.88;57.94;100390.53;5123014;27;20059;-80
2021/09/11 08:20:59;;;;;;;1.13;1.13;;;;;;;20.34;53.10;100369.34;5146402;27;20055;-82
2021/09/11 08:23:49;;;;;;;1.05;1.05;;;;;;;20.93;50.65;100331.34;5113984;27;20114;-82
2021/09/11 08:26:29;;;;;;;1.23;1.23;;;;;;;20.58;50.90;100356.56;5130568;28;20039;-79
2021/09/11 08:29:24;;;;;;;2.35;2.25;;;;;;;19.73;53.64;100368.44;5112043;28;20464;-82
2021/09/11 08:32:09;;;;;;;1.55;1.45;;;;;;;19.04;56.00;100375.91;5110184;28;20047;-81
2021/09/11 08:34:56;;;;;;;1.77;1.67;;;;;;;19.07;55.31;100383.63;5128631;28;20453;-80
2021/09/11 08:37:22;;;;;;;1.80;1.70;;;;;;;19.16;55.88;100389.97;5081343;27;20059;-81
2021/09/11 08:39:48;;;;;;;1.35;1.33;;;;;;;18.99;54.60;100387.84;5132128;27;20446;-79
2021/09/11 08:42:15;;;;;;;1.40;1.40;;;;;;;19.14;55.14;100384.78;5142258;27;20035;-78
2021/09/11 08:44:41;;;;;;;1.05;1.05;;;;;;;19.04;56.71;100373.28;5128491;27;20067;-81
2021/09/11 08:47:07;;;;;;;1.10;1.10;;;;;;;18.78;55.74;100379.03;5111395;28;20050;-80
2021/09/11 08:49:34;;;;;;;1.00;1.00;;;;;;;19.23;53.94;100385.88;5129871;27;20532;-80
2021/09/11 08:52:04;;;;;;;1.00;1.00;;;;;;;19.55;52.91;100376.13;5123228;27;20110;-81
2021/09/11 08:54:30;;;;;;;1.02;1.02;;;;;;;19.33;54.46;100386.78;5096882;27;20120;-80
2021/09/11 08:56:56;;;;;;;1.00;1.00;;;;;;;18.92;55.00;100376.94;5131581;27;20039;-78
2021/09/11 08:59:24;;;;;;;1.00;1.00;;;;;;;19.12;54.19;100385.88;5132814;27;20039;-80
2021/09/11 09:02:02;;;;;;;1.85;1.20;;;;;;;19.06;53.24;100375.81;5097695;27;20126;-80
2021/09/11 09:04:47;;;;;;;0.90;0.90;;;;;;;18.94;55.80;100382.09;5132687;27;20085;-79
2021/09/11 09:07:39;;;;;;;1.48;1.38;;;;;;;18.87;56.37;100373.81;5099715;27;20826;-82
2021/09/11 09:10:10;;;;;;;1.20;1.20;;;;;;;18.91;55.74;100369.97;5130617;27;20039;-79
2021/09/11 09:12:44;;;;;;;1.30;1.20;;;;;;;18.55;56.57;100371.09;5130867;27;20476;-82
2021/09/11 09:15:13;;;;;;;0.90;0.90;;;;;;;18.52;56.69;100363.41;5112988;27;20512;-79
2021/09/11 09:17:44;;;;;;;5.35;1.20;;;;;;;18.65;56.43;100364.09;5129743;27;20067;-78
2021/09/11 09:20:16;;;;;;;1.20;1.20;;;;;;;18.75;56.05;100358.09;5131721;27;20039;-78
2021/09/11 09:22:43;;;;;;;1.08;1.08;;;;;;;18.92;55.56;100361.03;5113530;27;20134;-80
2021/09/11 09:25:22;;;;;;;1.08;1.08;;;;;;;18.78;55.48;100358.69;5132909;27;20031;-78
2021/09/11 09:27:54;;;;;;;1.17;1.17;;;;;;;18.05;58.65;100355.72;5132956;27;20070;-79
2021/09/11 09:30:22;;;;;;;1.13;1.13;;;;;;;18.43;58.64;100358.81;5098597;27;20042;-80
2021/09/11 09:32:49;;;;;;;5.47;1.15;;;;;;;18.39;57.62;100352.09;5109531;27;20068;-82
2021/09/11 09:35:22;;;;;;;1.30;1.20;;;;;;;18.45;57.47;100351.63;5119616;27;20407;-83
2021/09/11 09:37:59;;;;;;;16.55;2.58;;;;;;;18.39;58.23;100348.63;5126918;27;20481;-80
2021/09/11 09:40:37;;;;;;;1.65;1.55;;;;;;;18.50;57.57;100354.75;5145817;27;20070;-79
2021/09/11 09:43:04;;;;;;;1.20;1.20;;;;;;;18.56;57.30;100351.63;5153642;27;20095;-81
2021/09/11 09:45:31;;;;;;;1.63;1.58;;;;;;;18.54;57.39;100350.06;5164667;27;20031;-80
2021/09/11 09:48:09;;;;;;;1.67;1.40;;;;;;;18.45;58.01;100348.13;5157765;27;20043;-82
2021/09/11 09:50:40;;;;;;;1.65;1.55;;;;;;;18.41;58.83;100344.88;5158394;27;20035;-83
2021/09/11 09:53:08;;;;;;;1.73;1.60;;;;;;;18.45;58.74;100345.50;5157650;27;20046;-84
2021/09/11 09:55:34;;;;;;;0.93;0.93;;;;;;;18.32;59.52;100339.50;5156762;27;20045;-83
2021/09/11 09:58:00;;;;;;;1.20;1.20;;;;;;;18.09;59.92;100317.53;5136134;27;20555;-79
2021/09/11 10:00:26;;;;;;;0.65;0.65;;;;;;;17.93;60.27;100332.88;5136384;27;20051;-81
2021/09/11 10:02:54;;;;;;;1.20;1.20;;;;;;;18.06;59.71;100333.63;5155416;27;20042;-82
2021/09/11 10:05:22;;;;;;;3.55;1.20;;;;;;;18.08;58.79;100336.97;5157565;27;20034;-84
2021/09/11 10:07:57;;;;;;;1.90;1.80;;;;;;;17.89;60.02;100331.44;5144549;27;20053;-82
2021/09/11 10:10:30;;;;;;;1.48;1.38;;;;;;;17.84;60.00;100337.06;5145142;27;20062;-84
2021/09/11 10:13:15;;;;;;;1.30;1.30;;;;;;;17.87;60.25;100325.41;5137806;27;20050;-83
2021/09/11 10:16:00;;;;;;;1.00;1.00;;;;;;;17.91;59.40;100327.72;5135656;27;20096;-81
2021/09/11 10:18:30;;;;;;;6.95;1.50;;;;;;;17.84;59.41;100315.09;5119616;27;20049;-86
2021/09/11 10:21:18;;;;;;;4.03;1.55;;;;;;;17.83;60.35;100324.84;5155411;27;20030;-81
2021/09/11 10:23:55;;;;;;;1.20;1.20;;;;;;;17.76;60.77;100320.13;5177367;27;20038;-85
2021/09/11 10:26:47;;;;;;;2.20;2.10;;;;;;;17.66;61.06;100320.84;5174854;27;20120;-84
2021/09/11 10:29:32;;;;;;;1.73;1.63;;;;;;;17.61;61.80;100317.69;5155829;27;20505;-82
2021/09/11 10:32:07;;;;;;;1.80;1.70;;;;;;;17.65;61.88;100315.66;5117204;27;20043;-84
2021/09/11 10:34:46;;;;;;;1.65;1.55;;;;;;;17.64;60.85;100316.63;5123104;27;20133;-84
2021/09/11 10:37:31;;;;;;;1.58;1.55;;;;;;;17.79;61.24;100309.34;5134799;27;20099;-84
2021/09/11 10:40:22;;;;;;;1.17;1.17;;;;;;;17.79;60.97;100304.06;5122915;27;20049;-86
2021/09/11 10:43:19;;;;;;;2.05;1.92;;;;;;;17.81;60.88;100302.97;5146703;27;20030;-83
2021/09/11 10:45:58;;;;;;;8.43;3.47;;;;;;;17.61;61.47;100301.84;5159323;27;20042;-83
2021/09/11 10:48:51;;;;;;;5.78;2.67;;;;;;;17.75;61.70;100297.31;5136479;27;20106;-84
2021/09/11 10:51:24;;;;;;;2.03;1.85;;;;;;;17.74;61.53;100296.47;5153437;27;20043;-83
2021/09/11 10:54:15;;;;;;;2.25;2.15;;;;;;;17.70;62.47;100308.25;5136227;27;20631;-84
2021/09/11 10:56:52;;;;;;;2.97;2.75;;;;;;;17.73;62.18;100301.88;5134127;27;20042;-80
2021/09/11 10:59:18;;;;;;;2.13;2.03;;;;;;;17.72;62.44;100300.19;5152587;27;20034;-84
2021/09/11 11:02:05;;;;;;;1.67;1.67;;;;;;;17.66;63.47;100296.25;5153105;27;20042;-83
2021/09/11 11:04:37;;;;;;;1.33;1.30;;;;;;;17.83;62.55;100284.38;5137073;27;20035;-85
2021/09/11 11:07:08;;;;;;;10.05;1.63;;;;;;;17.75;62.37;100284.09;5135604;27;20038;-83
2021/09/11 11:09:51;;;;;;;2.40;2.30;;;;;;;17.74;63.07;100287.69;5135860;27;20082;-83
2021/09/11 11:12:37;;;;;;;1.50;1.50;;;;;;;17.74;63.17;100282.41;5136468;27;20416;-83
2021/09/11 11:15:05;;;;;;;2.13;2.00;;;;;;;17.73;63.23;100278.97;5156496;27;20582;-83
2021/09/11 11:17:36;;;;;;;3.80;2.17;;;;;;;17.79;64.39;100277.63;5137177;27;20042;-84
2021/09/11 11:20:03;;;;;;;1.52;1.50;;;;;;;17.86;63.37;100273.56;5119634;27;20528;-84
2021/09/11 11:22:31;;;;;;;1.60;1.50;;;;;;;17.88;63.40;100264.53;5100650;27;20137;-83
2021/09/11 11:24:58;;;;;;;1.58;1.58;;;;;;;17.82;64.16;100261.53;5153873;27;20050;-84
2021/09/11 11:27:25;;;;;;;1.27;1.27;;;;;;;17.86;63.80;100263.00;5118869;27;20038;-83
2021/09/11 11:29:52;;;;;;;1.60;1.50;;;;;;;18.04;63.34;100257.09;5153469;27;20035;-83
2021/09/11 11:32:20;;;;;;;3.53;1.55;;;;;;;18.06;63.05;100260.44;5154530;27;20515;-82
2021/09/11 11:34:49;;;;;;;4.60;3.03;;;;;;;17.95;64.04;100252.53;5133513;27;20038;-81
2021/09/11 11:37:15;;;;;;;2.45;2.35;;;;;;;17.97;64.05;100255.88;5134546;27;20042;-84
2021/09/11 11:39:44;;;;;;;3.67;3.38;;;;;;;17.85;63.79;100245.44;5152048;27;20049;-83
2021/09/11 11:42:16;;;;;;;2.55;2.40;;;;;;;17.75;64.50;100242.69;5135418;27;20494;-83
2021/09/11 11:44:47;;;;;;;1.58;1.58;;;;;;;17.59;64.79;100240.41;5156866;27;20074;-84
2021/09/11 11:47:47;;;;;;;1.70;1.60;;;;;;;17.72;64.88;100239.44;5157208;27;20745;-83
2021/09/11 11:50:19;;;;;;;2.30;2.00;;;;;;;17.94;64.60;100234.16;5157755;27;20073;-84
2021/09/11 11:53:11;;;;;;;1.83;1.73;;;;;;;18.05;64.13;100237.63;5155719;27;20038;-81
2021/09/11 11:55:45;;;;;;;2.22;2.13;;;;;;;18.35;63.91;100231.69;5140450;27;20104;-82
2021/09/11 11:58:45;;;;;;;1.38;1.38;;;;;;;18.31;64.14;100210.91;5141855;27;20030;-83
2021/09/11 12:01:37;;;;;;;1.52;1.42;;;;;;;17.99;64.62;100218.78;5144567;27;20524;-83